sensor_id;sensor_type;location;lat;lon;timestamp;P1;durP1;ratioP1;P2;durP2;ratioP2
18899;SDS011;9582;52.018;6.306;2023-02-28T00:00:06;7.70;;;6.90;;
18899;SDS011;9582;52.018;6.306;2023-02-28T00:02:36;8.90;;;6.40;;
18899;SDS011;9582;52.018;6.306;2023-02-28T00:05:04;8.87;;;5.80;;
18899;SDS011;9582;52.018;6.306;2023-02-28T00:07:32;9.33;;;6.17;;
18899;SDS011;9582;52.018;6.306;2023-02-28T00:09:59;8.60;;;6.60;;
18899;SDS011;9582;52.018;6.306;2023-02-28T00:12:26;7.50;;;5.90;;
18899;SDS011;9582;52.018;6.306;2023-02-28T00:14:53;9.43;;;5.93;;
18899;SDS011;9582;52.018;6.306;2023-02-28T00:17:20;8.67;;;6.30;;
18899;SDS011;9582;52.018;6.306;2023-02-28T00:19:48;9.43;;;5.80;;
18899;SDS011;9582;52.018;6.306;2023-02-28T00:22:15;10.10;;;6.33;;
18899;SDS011;9582;52.018;6.306;2023-02-28T00:24:42;8.43;;;5.87;;
18899;SDS011;9582;52.018;6.306;2023-02-28T00:27:09;9.00;;;6.00;;
18899;SDS011;9582;52.018;6.306;2023-02-28T00:29:35;9.67;;;5.97;;
18899;SDS011;9582;52.018;6.306;2023-02-28T00:32:02;7.67;;;6.13;;
18899;SDS011;9582;52.018;6.306;2023-02-28T00:34:29;7.93;;;5.90;;
18899;SDS011;9582;52.018;6.306;2023-02-28T00:36:57;11.13;;;6.73;;
18899;SDS011;9582;52.018;6.306;2023-02-28T00:39:24;8.73;;;6.13;;
18899;SDS011;9582;52.018;6.306;2023-02-28T00:41:50;9.37;;;5.83;;
18899;SDS011;9582;52.018;6.306;2023-02-28T00:44:17;8.13;;;6.37;;
18899;SDS011;9582;52.018;6.306;2023-02-28T00:46:46;8.00;;;5.70;;
18899;SDS011;9582;52.018;6.306;2023-02-28T00:49:13;7.90;;;6.00;;
18899;SDS011;9582;52.018;6.306;2023-02-28T00:51:41;7.70;;;5.77;;
18899;SDS011;9582;52.018;6.306;2023-02-28T00:54:09;8.90;;;6.17;;
18899;SDS011;9582;52.018;6.306;2023-02-28T00:56:35;7.07;;;5.97;;
18899;SDS011;9582;52.018;6.306;2023-02-28T00:59:03;8.97;;;5.90;;
18899;SDS011;9582;52.018;6.306;2023-02-28T01:01:29;8.37;;;5.57;;
18899;SDS011;9582;52.018;6.306;2023-02-28T01:03:57;8.87;;;6.17;;
18899;SDS011;9582;52.018;6.306;2023-02-28T01:06:23;8.10;;;5.77;;
18899;SDS011;9582;52.018;6.306;2023-02-28T01:08:50;7.23;;;5.50;;
18899;SDS011;9582;52.018;6.306;2023-02-28T01:11:18;9.67;;;6.07;;
18899;SDS011;9582;52.018;6.306;2023-02-28T01:13:45;6.27;;;5.30;;
18899;SDS011;9582;52.018;6.306;2023-02-28T01:16:12;7.67;;;5.40;;
18899;SDS011;9582;52.018;6.306;2023-02-28T01:18:40;11.27;;;6.27;;
18899;SDS011;9582;52.018;6.306;2023-02-28T01:21:07;7.73;;;6.00;;
18899;SDS011;9582;52.018;6.306;2023-02-28T01:23:37;8.47;;;6.27;;
18899;SDS011;9582;52.018;6.306;2023-02-28T01:26:04;7.37;;;5.57;;
18899;SDS011;9582;52.018;6.306;2023-02-28T01:28:33;7.73;;;5.47;;
18899;SDS011;9582;52.018;6.306;2023-02-28T01:30:59;6.77;;;5.53;;
18899;SDS011;9582;52.018;6.306;2023-02-28T01:33:26;7.03;;;5.40;;
18899;SDS011;9582;52.018;6.306;2023-02-28T01:35:57;9.70;;;5.50;;
18899;SDS011;9582;52.018;6.306;2023-02-28T01:38:24;8.03;;;5.67;;
18899;SDS011;9582;52.018;6.306;2023-02-28T01:40:53;6.70;;;5.20;;
18899;SDS011;9582;52.018;6.306;2023-02-28T01:43:21;7.40;;;5.37;;
18899;SDS011;9582;52.018;6.306;2023-02-28T01:45:50;7.17;;;5.40;;
18899;SDS011;9582;52.018;6.306;2023-02-28T01:48:18;6.67;;;5.60;;
18899;SDS011;9582;52.018;6.306;2023-02-28T01:50:47;8.30;;;5.97;;
18899;SDS011;9582;52.018;6.306;2023-02-28T01:53:16;7.50;;;5.43;;
18899;SDS011;9582;52.018;6.306;2023-02-28T01:55:46;6.93;;;5.70;;
18899;SDS011;9582;52.018;6.306;2023-02-28T01:58:15;8.03;;;5.60;;
18899;SDS011;9582;52.018;6.306;2023-02-28T02:00:42;6.23;;;5.30;;
18899;SDS011;9582;52.018;6.306;2023-02-28T02:03:11;6.93;;;5.70;;
18899;SDS011;9582;52.018;6.306;2023-02-28T02:05:41;7.17;;;5.20;;
18899;SDS011;9582;52.018;6.306;2023-02-28T02:08:13;9.50;;;5.97;;
18899;SDS011;9582;52.018;6.306;2023-02-28T02:10:44;7.10;;;5.90;;
18899;SDS011;9582;52.018;6.306;2023-02-28T02:13:16;9.53;;;6.07;;
18899;SDS011;9582;52.018;6.306;2023-02-28T02:15:55;8.10;;;5.73;;
18899;SDS011;9582;52.018;6.306;2023-02-28T02:18:34;7.90;;;5.80;;
18899;SDS011;9582;52.018;6.306;2023-02-28T02:21:14;8.43;;;6.37;;
18899;SDS011;9582;52.018;6.306;2023-02-28T02:27:18;9.50;;;5.77;;
18899;SDS011;9582;52.018;6.306;2023-02-28T02:29:57;8.30;;;6.30;;
18899;SDS011;9582;52.018;6.306;2023-02-28T02:32:47;7.87;;;5.87;;
18899;SDS011;9582;52.018;6.306;2023-02-28T02:35:39;9.03;;;5.40;;
18899;SDS011;9582;52.018;6.306;2023-02-28T02:38:14;8.47;;;6.10;;
18899;SDS011;9582;52.018;6.306;2023-02-28T02:40:57;6.87;;;5.30;;
18899;SDS011;9582;52.018;6.306;2023-02-28T02:43:31;8.40;;;5.67;;
18899;SDS011;9582;52.018;6.306;2023-02-28T02:46:02;7.57;;;5.70;;
18899;SDS011;9582;52.018;6.306;2023-02-28T02:48:32;8.83;;;6.70;;
18899;SDS011;9582;52.018;6.306;2023-02-28T02:51:03;7.00;;;6.00;;
18899;SDS011;9582;52.018;6.306;2023-02-28T02:53:40;10.63;;;6.17;;
18899;SDS011;9582;52.018;6.306;2023-02-28T02:56:11;7.00;;;5.97;;
18899;SDS011;9582;52.018;6.306;2023-02-28T02:58:40;8.33;;;6.87;;
18899;SDS011;9582;52.018;6.306;2023-02-28T03:01:10;11.17;;;6.40;;
18899;SDS011;9582;52.018;6.306;2023-02-28T03:03:40;8.40;;;5.73;;
18899;SDS011;9582;52.018;6.306;2023-02-28T03:06:09;7.87;;;6.00;;
18899;SDS011;9582;52.018;6.306;2023-02-28T03:08:37;7.07;;;5.90;;
18899;SDS011;9582;52.018;6.306;2023-02-28T03:11:04;10.10;;;5.43;;
18899;SDS011;9582;52.018;6.306;2023-02-28T03:13:42;6.33;;;4.93;;
18899;SDS011;9582;52.018;6.306;2023-02-28T03:16:30;5.87;;;5.00;;
18899;SDS011;9582;52.018;6.306;2023-02-28T03:19:08;10.03;;;5.43;;
18899;SDS011;9582;52.018;6.306;2023-02-28T03:21:59;8.40;;;5.13;;
18899;SDS011;9582;52.018;6.306;2023-02-28T03:24:38;7.37;;;4.40;;
18899;SDS011;9582;52.018;6.306;2023-02-28T03:27:15;9.07;;;5.00;;
18899;SDS011;9582;52.018;6.306;2023-02-28T03:29:45;7.07;;;4.33;;
18899;SDS011;9582;52.018;6.306;2023-02-28T03:32:17;5.00;;;4.50;;
18899;SDS011;9582;52.018;6.306;2023-02-28T03:34:48;9.93;;;4.40;;
18899;SDS011;9582;52.018;6.306;2023-02-28T03:37:22;6.40;;;4.70;;
18899;SDS011;9582;52.018;6.306;2023-02-28T03:39:53;5.43;;;4.43;;
18899;SDS011;9582;52.018;6.306;2023-02-28T03:42:24;6.63;;;4.73;;
18899;SDS011;9582;52.018;6.306;2023-02-28T03:44:54;6.20;;;3.97;;
18899;SDS011;9582;52.018;6.306;2023-02-28T03:47:24;6.27;;;4.43;;
18899;SDS011;9582;52.018;6.306;2023-02-28T03:49:56;6.50;;;4.20;;
18899;SDS011;9582;52.018;6.306;2023-02-28T03:52:36;7.77;;;4.87;;
18899;SDS011;9582;52.018;6.306;2023-02-28T03:55:10;8.63;;;4.70;;
18899;SDS011;9582;52.018;6.306;2023-02-28T03:57:40;5.60;;;4.30;;
18899;SDS011;9582;52.018;6.306;2023-02-28T04:00:17;7.23;;;4.40;;
18899;SDS011;9582;52.018;6.306;2023-02-28T04:02:47;5.93;;;4.33;;
18899;SDS011;9582;52.018;6.306;2023-02-28T04:05:17;6.10;;;4.43;;
18899;SDS011;9582;52.018;6.306;2023-02-28T04:07:46;5.03;;;4.00;;
18899;SDS011;9582;52.018;6.306;2023-02-28T04:10:13;6.60;;;4.00;;
18899;SDS011;9582;52.018;6.306;2023-02-28T04:12:41;6.57;;;4.17;;
18899;SDS011;9582;52.018;6.306;2023-02-28T04:15:08;5.77;;;4.20;;
18899;SDS011;9582;52.018;6.306;2023-02-28T04:17:35;5.17;;;4.33;;
18899;SDS011;9582;52.018;6.306;2023-02-28T04:20:02;6.33;;;4.20;;
18899;SDS011;9582;52.018;6.306;2023-02-28T04:22:34;7.97;;;4.67;;
18899;SDS011;9582;52.018;6.306;2023-02-28T04:25:02;9.77;;;4.67;;
18899;SDS011;9582;52.018;6.306;2023-02-28T04:27:29;5.23;;;4.70;;
18899;SDS011;9582;52.018;6.306;2023-02-28T04:29:55;5.57;;;4.33;;
18899;SDS011;9582;52.018;6.306;2023-02-28T04:32:22;5.00;;;4.50;;
18899;SDS011;9582;52.018;6.306;2023-02-28T04:34:49;7.70;;;4.70;;
18899;SDS011;9582;52.018;6.306;2023-02-28T04:37:15;6.77;;;4.33;;
18899;SDS011;9582;52.018;6.306;2023-02-28T04:39:42;6.40;;;4.40;;
18899;SDS011;9582;52.018;6.306;2023-02-28T04:42:10;7.70;;;4.73;;
18899;SDS011;9582;52.018;6.306;2023-02-28T04:44:37;5.80;;;4.50;;
18899;SDS011;9582;52.018;6.306;2023-02-28T04:47:03;5.60;;;4.43;;
18899;SDS011;9582;52.018;6.306;2023-02-28T04:49:30;6.13;;;4.40;;
18899;SDS011;9582;52.018;6.306;2023-02-28T04:51:58;5.50;;;4.90;;
18899;SDS011;9582;52.018;6.306;2023-02-28T04:54:25;7.13;;;4.93;;
18899;SDS011;9582;52.018;6.306;2023-02-28T04:56:51;6.47;;;4.80;;
18899;SDS011;9582;52.018;6.306;2023-02-28T04:59:19;7.00;;;4.93;;
18899;SDS011;9582;52.018;6.306;2023-02-28T05:01:46;6.60;;;5.10;;
18899;SDS011;9582;52.018;6.306;2023-02-28T05:04:14;6.87;;;4.77;;
18899;SDS011;9582;52.018;6.306;2023-02-28T05:06:41;6.00;;;4.73;;
18899;SDS011;9582;52.018;6.306;2023-02-28T05:09:07;5.93;;;4.50;;
18899;SDS011;9582;52.018;6.306;2023-02-28T05:11:36;5.63;;;4.70;;
18899;SDS011;9582;52.018;6.306;2023-02-28T05:14:04;6.73;;;5.30;;
18899;SDS011;9582;52.018;6.306;2023-02-28T05:16:33;7.77;;;5.40;;
18899;SDS011;9582;52.018;6.306;2023-02-28T05:19:00;6.80;;;4.97;;
18899;SDS011;9582;52.018;6.306;2023-02-28T05:21:27;8.10;;;5.40;;
18899;SDS011;9582;52.018;6.306;2023-02-28T05:23:55;6.93;;;5.20;;
18899;SDS011;9582;52.018;6.306;2023-02-28T05:26:23;8.87;;;5.10;;
18899;SDS011;9582;52.018;6.306;2023-02-28T05:28:50;8.10;;;4.87;;
18899;SDS011;9582;52.018;6.306;2023-02-28T05:31:16;7.83;;;5.87;;
18899;SDS011;9582;52.018;6.306;2023-02-28T05:33:44;6.33;;;5.23;;
18899;SDS011;9582;52.018;6.306;2023-02-28T05:36:11;6.37;;;5.33;;
18899;SDS011;9582;52.018;6.306;2023-02-28T05:38:38;6.60;;;5.43;;
18899;SDS011;9582;52.018;6.306;2023-02-28T05:41:05;8.70;;;5.40;;
18899;SDS011;9582;52.018;6.306;2023-02-28T05:43:32;7.53;;;5.07;;
18899;SDS011;9582;52.018;6.306;2023-02-28T05:46:01;6.17;;;5.03;;
18899;SDS011;9582;52.018;6.306;2023-02-28T05:48:29;7.00;;;5.30;;
18899;SDS011;9582;52.018;6.306;2023-02-28T05:50:58;5.43;;;4.67;;
18899;SDS011;9582;52.018;6.306;2023-02-28T05:53:24;5.30;;;4.73;;
18899;SDS011;9582;52.018;6.306;2023-02-28T05:55:51;6.70;;;5.07;;
18899;SDS011;9582;52.018;6.306;2023-02-28T05:58:17;7.87;;;5.10;;
18899;SDS011;9582;52.018;6.306;2023-02-28T06:00:44;6.67;;;5.30;;
18899;SDS011;9582;52.018;6.306;2023-02-28T06:03:11;6.07;;;4.80;;
18899;SDS011;9582;52.018;6.306;2023-02-28T06:05:37;7.83;;;5.20;;
18899;SDS011;9582;52.018;6.306;2023-02-28T06:08:06;6.63;;;5.17;;
18899;SDS011;9582;52.018;6.306;2023-02-28T06:10:33;6.67;;;4.90;;
18899;SDS011;9582;52.018;6.306;2023-02-28T06:13:00;6.80;;;5.50;;
18899;SDS011;9582;52.018;6.306;2023-02-28T06:15:27;6.60;;;5.20;;
18899;SDS011;9582;52.018;6.306;2023-02-28T06:17:54;8.53;;;5.43;;
18899;SDS011;9582;52.018;6.306;2023-02-28T06:20:21;6.77;;;5.53;;
18899;SDS011;9582;52.018;6.306;2023-02-28T06:22:49;7.27;;;5.80;;
18899;SDS011;9582;52.018;6.306;2023-02-28T06:25:17;9.33;;;5.70;;
18899;SDS011;9582;52.018;6.306;2023-02-28T06:27:44;8.90;;;5.40;;
18899;SDS011;9582;52.018;6.306;2023-02-28T06:30:11;6.60;;;5.63;;
18899;SDS011;9582;52.018;6.306;2023-02-28T06:32:38;6.93;;;5.30;;
18899;SDS011;9582;52.018;6.306;2023-02-28T06:35:04;8.13;;;6.03;;
18899;SDS011;9582;52.018;6.306;2023-02-28T06:37:31;9.73;;;6.50;;
18899;SDS011;9582;52.018;6.306;2023-02-28T06:39:58;11.10;;;7.40;;
18899;SDS011;9582;52.018;6.306;2023-02-28T06:42:26;11.00;;;6.33;;
18899;SDS011;9582;52.018;6.306;2023-02-28T06:44:53;8.13;;;6.60;;
18899;SDS011;9582;52.018;6.306;2023-02-28T06:47:20;9.37;;;6.63;;
18899;SDS011;9582;52.018;6.306;2023-02-28T06:49:47;8.40;;;5.83;;
18899;SDS011;9582;52.018;6.306;2023-02-28T06:52:14;7.70;;;5.37;;
18899;SDS011;9582;52.018;6.306;2023-02-28T06:54:41;8.77;;;5.50;;
18899;SDS011;9582;52.018;6.306;2023-02-28T06:57:07;7.40;;;4.87;;
18899;SDS011;9582;52.018;6.306;2023-02-28T06:59:35;8.40;;;5.03;;
18899;SDS011;9582;52.018;6.306;2023-02-28T07:02:02;7.47;;;4.60;;
18899;SDS011;9582;52.018;6.306;2023-02-28T07:04:28;6.27;;;4.60;;
18899;SDS011;9582;52.018;6.306;2023-02-28T07:06:55;8.73;;;5.03;;
18899;SDS011;9582;52.018;6.306;2023-02-28T07:09:22;7.83;;;5.20;;
18899;SDS011;9582;52.018;6.306;2023-02-28T07:11:48;5.70;;;4.47;;
18899;SDS011;9582;52.018;6.306;2023-02-28T07:14:15;6.63;;;4.50;;
18899;SDS011;9582;52.018;6.306;2023-02-28T07:16:43;7.07;;;4.60;;
18899;SDS011;9582;52.018;6.306;2023-02-28T07:19:10;7.10;;;4.47;;
18899;SDS011;9582;52.018;6.306;2023-02-28T07:21:37;5.87;;;4.67;;
18899;SDS011;9582;52.018;6.306;2023-02-28T07:24:03;7.83;;;4.83;;
18899;SDS011;9582;52.018;6.306;2023-02-28T07:26:30;9.10;;;4.53;;
18899;SDS011;9582;52.018;6.306;2023-02-28T07:28:59;5.97;;;4.53;;
18899;SDS011;9582;52.018;6.306;2023-02-28T07:31:25;6.23;;;4.50;;
18899;SDS011;9582;52.018;6.306;2023-02-28T07:33:53;6.77;;;4.60;;
18899;SDS011;9582;52.018;6.306;2023-02-28T07:36:21;5.13;;;4.40;;
18899;SDS011;9582;52.018;6.306;2023-02-28T07:38:48;4.67;;;3.67;;
18899;SDS011;9582;52.018;6.306;2023-02-28T07:41:15;7.30;;;4.00;;
18899;SDS011;9582;52.018;6.306;2023-02-28T07:43:43;6.27;;;4.10;;
18899;SDS011;9582;52.018;6.306;2023-02-28T07:46:11;4.40;;;3.90;;
18899;SDS011;9582;52.018;6.306;2023-02-28T07:48:40;5.23;;;3.87;;
18899;SDS011;9582;52.018;6.306;2023-02-28T07:51:08;6.17;;;3.97;;
18899;SDS011;9582;52.018;6.306;2023-02-28T07:53:34;5.93;;;3.33;;
18899;SDS011;9582;52.018;6.306;2023-02-28T07:56:02;5.87;;;3.57;;
18899;SDS011;9582;52.018;6.306;2023-02-28T07:58:29;3.50;;;2.90;;
18899;SDS011;9582;52.018;6.306;2023-02-28T08:00:56;5.00;;;3.00;;
18899;SDS011;9582;52.018;6.306;2023-02-28T08:03:23;5.77;;;3.20;;
18899;SDS011;9582;52.018;6.306;2023-02-28T08:05:50;4.73;;;2.77;;
18899;SDS011;9582;52.018;6.306;2023-02-28T08:08:19;4.03;;;2.60;;
18899;SDS011;9582;52.018;6.306;2023-02-28T08:10:46;6.43;;;2.90;;
18899;SDS011;9582;52.018;6.306;2023-02-28T08:13:12;2.90;;;2.30;;
18899;SDS011;9582;52.018;6.306;2023-02-28T08:15:40;3.70;;;2.83;;
18899;SDS011;9582;52.018;6.306;2023-02-28T08:18:07;4.27;;;2.13;;
18899;SDS011;9582;52.018;6.306;2023-02-28T08:20:33;3.30;;;2.53;;
18899;SDS011;9582;52.018;6.306;2023-02-28T08:23:00;2.67;;;2.47;;
18899;SDS011;9582;52.018;6.306;2023-02-28T08:25:27;5.57;;;2.80;;
18899;SDS011;9582;52.018;6.306;2023-02-28T08:27:54;2.07;;;1.87;;
18899;SDS011;9582;52.018;6.306;2023-02-28T08:30:20;4.80;;;2.50;;
18899;SDS011;9582;52.018;6.306;2023-02-28T08:32:47;4.27;;;2.27;;
18899;SDS011;9582;52.018;6.306;2023-02-28T08:35:14;2.63;;;2.10;;
18899;SDS011;9582;52.018;6.306;2023-02-28T08:37:41;4.10;;;2.53;;
18899;SDS011;9582;52.018;6.306;2023-02-28T08:40:07;3.33;;;1.80;;
18899;SDS011;9582;52.018;6.306;2023-02-28T08:42:36;2.17;;;1.87;;
18899;SDS011;9582;52.018;6.306;2023-02-28T08:45:03;2.60;;;2.10;;
18899;SDS011;9582;52.018;6.306;2023-02-28T08:47:30;2.70;;;2.30;;
18899;SDS011;9582;52.018;6.306;2023-02-28T08:49:57;2.60;;;2.07;;
18899;SDS011;9582;52.018;6.306;2023-02-28T08:52:23;2.53;;;1.83;;
18899;SDS011;9582;52.018;6.306;2023-02-28T08:54:50;2.87;;;1.97;;
18899;SDS011;9582;52.018;6.306;2023-02-28T08:57:16;2.03;;;1.60;;
18899;SDS011;9582;52.018;6.306;2023-02-28T08:59:44;2.80;;;2.17;;
18899;SDS011;9582;52.018;6.306;2023-02-28T09:02:12;2.50;;;1.73;;
18899;SDS011;9582;52.018;6.306;2023-02-28T09:04:39;3.10;;;1.63;;
18899;SDS011;9582;52.018;6.306;2023-02-28T09:07:06;3.40;;;1.80;;
18899;SDS011;9582;52.018;6.306;2023-02-28T09:09:32;2.87;;;1.90;;
18899;SDS011;9582;52.018;6.306;2023-02-28T09:11:59;2.03;;;1.93;;
18899;SDS011;9582;52.018;6.306;2023-02-28T09:14:26;2.07;;;1.67;;
18899;SDS011;9582;52.018;6.306;2023-02-28T09:16:54;2.63;;;1.80;;
18899;SDS011;9582;52.018;6.306;2023-02-28T09:19:21;2.00;;;1.70;;
18899;SDS011;9582;52.018;6.306;2023-02-28T09:21:48;3.13;;;1.90;;
18899;SDS011;9582;52.018;6.306;2023-02-28T09:24:14;1.70;;;1.60;;
18899;SDS011;9582;52.018;6.306;2023-02-28T09:26:41;2.83;;;1.83;;
18899;SDS011;9582;52.018;6.306;2023-02-28T09:29:07;2.83;;;1.93;;
18899;SDS011;9582;52.018;6.306;2023-02-28T09:31:34;1.93;;;1.70;;
18899;SDS011;9582;52.018;6.306;2023-02-28T09:34:03;2.23;;;1.70;;
18899;SDS011;9582;52.018;6.306;2023-02-28T09:36:30;4.00;;;1.60;;
18899;SDS011;9582;52.018;6.306;2023-02-28T09:38:58;2.07;;;1.70;;
18899;SDS011;9582;52.018;6.306;2023-02-28T09:41:25;2.03;;;1.60;;
18899;SDS011;9582;52.018;6.306;2023-02-28T09:43:55;1.97;;;1.40;;
18899;SDS011;9582;52.018;6.306;2023-02-28T09:46:27;1.30;;;1.20;;
18899;SDS011;9582;52.018;6.306;2023-02-28T09:48:57;2.03;;;1.57;;
18899;SDS011;9582;52.018;6.306;2023-02-28T09:51:39;1.50;;;1.30;;
18899;SDS011;9582;52.018;6.306;2023-02-28T09:54:13;1.50;;;1.30;;
18899;SDS011;9582;52.018;6.306;2023-02-28T09:56:44;1.93;;;1.43;;
18899;SDS011;9582;52.018;6.306;2023-02-28T09:59:14;1.90;;;1.30;;
18899;SDS011;9582;52.018;6.306;2023-02-28T10:01:54;1.70;;;1.50;;
18899;SDS011;9582;52.018;6.306;2023-02-28T10:04:33;1.90;;;1.10;;
18899;SDS011;9582;52.018;6.306;2023-02-28T10:07:11;1.80;;;1.27;;
18899;SDS011;9582;52.018;6.306;2023-02-28T10:09:44;1.87;;;1.50;;
18899;SDS011;9582;52.018;6.306;2023-02-28T10:12:16;1.77;;;1.50;;
18899;SDS011;9582;52.018;6.306;2023-02-28T10:14:44;1.73;;;1.50;;
18899;SDS011;9582;52.018;6.306;2023-02-28T10:17:14;1.47;;;1.30;;
18899;SDS011;9582;52.018;6.306;2023-02-28T10:19:49;2.47;;;1.60;;
18899;SDS011;9582;52.018;6.306;2023-02-28T10:22:24;1.90;;;1.60;;
18899;SDS011;9582;52.018;6.306;2023-02-28T10:24:55;1.43;;;1.33;;
18899;SDS011;9582;52.018;6.306;2023-02-28T10:27:28;2.13;;;1.50;;
18899;SDS011;9582;52.018;6.306;2023-02-28T10:29:57;2.10;;;1.90;;
18899;SDS011;9582;52.018;6.306;2023-02-28T10:32:26;1.70;;;1.60;;
18899;SDS011;9582;52.018;6.306;2023-02-28T10:34:57;2.33;;;1.93;;
18899;SDS011;9582;52.018;6.306;2023-02-28T10:37:26;3.10;;;1.90;;
18899;SDS011;9582;52.018;6.306;2023-02-28T10:39:53;3.70;;;1.50;;
18899;SDS011;9582;52.018;6.306;2023-02-28T10:42:22;2.83;;;1.80;;
18899;SDS011;9582;52.018;6.306;2023-02-28T10:47:37;1.93;;;1.67;;
18899;SDS011;9582;52.018;6.306;2023-02-28T10:50:27;2.00;;;1.80;;
18899;SDS011;9582;52.018;6.306;2023-02-28T10:53:06;1.63;;;1.50;;
18899;SDS011;9582;52.018;6.306;2023-02-28T10:55:40;2.23;;;1.23;;
18899;SDS011;9582;52.018;6.306;2023-02-28T10:58:18;2.00;;;1.40;;
18899;SDS011;9582;52.018;6.306;2023-02-28T11:00:48;3.40;;;2.07;;
18899;SDS011;9582;52.018;6.306;2023-02-28T11:03:22;2.30;;;1.70;;
18899;SDS011;9582;52.018;6.306;2023-02-28T11:05:52;2.10;;;1.87;;
18899;SDS011;9582;52.018;6.306;2023-02-28T11:08:18;1.30;;;1.20;;
18899;SDS011;9582;52.018;6.306;2023-02-28T11:10:45;1.83;;;1.50;;
18899;SDS011;9582;52.018;6.306;2023-02-28T11:13:16;1.83;;;1.70;;
18899;SDS011;9582;52.018;6.306;2023-02-28T11:15:48;2.30;;;1.70;;
18899;SDS011;9582;52.018;6.306;2023-02-28T11:18:24;2.07;;;1.80;;
18899;SDS011;9582;52.018;6.306;2023-02-28T11:20:57;2.37;;;1.70;;
18899;SDS011;9582;52.018;6.306;2023-02-28T11:23:26;2.17;;;1.60;;
18899;SDS011;9582;52.018;6.306;2023-02-28T11:25:58;2.37;;;2.00;;
18899;SDS011;9582;52.018;6.306;2023-02-28T11:28:27;3.13;;;1.97;;
18899;SDS011;9582;52.018;6.306;2023-02-28T11:31:00;2.40;;;2.20;;
18899;SDS011;9582;52.018;6.306;2023-02-28T11:33:29;2.47;;;1.80;;
18899;SDS011;9582;52.018;6.306;2023-02-28T11:36:01;2.60;;;2.10;;
18899;SDS011;9582;52.018;6.306;2023-02-28T11:38:34;3.17;;;2.00;;
18899;SDS011;9582;52.018;6.306;2023-02-28T11:41:05;2.20;;;1.80;;
18899;SDS011;9582;52.018;6.306;2023-02-28T11:43:47;2.03;;;1.80;;
18899;SDS011;9582;52.018;6.306;2023-02-28T11:46:26;2.77;;;1.50;;
18899;SDS011;9582;52.018;6.306;2023-02-28T11:49:02;1.87;;;1.77;;
18899;SDS011;9582;52.018;6.306;2023-02-28T11:51:49;2.20;;;1.63;;
18899;SDS011;9582;52.018;6.306;2023-02-28T11:54:29;1.97;;;1.53;;
18899;SDS011;9582;52.018;6.306;2023-02-28T11:57:13;2.10;;;1.60;;
18899;SDS011;9582;52.018;6.306;2023-02-28T11:59:51;2.20;;;1.80;;
18899;SDS011;9582;52.018;6.306;2023-02-28T12:02:28;3.17;;;1.60;;
18899;SDS011;9582;52.018;6.306;2023-02-28T12:05:01;1.53;;;1.40;;
18899;SDS011;9582;52.018;6.306;2023-02-28T12:07:39;2.23;;;1.53;;
18899;SDS011;9582;52.018;6.306;2023-02-28T12:10:20;2.20;;;1.57;;
18899;SDS011;9582;52.018;6.306;2023-02-28T12:12:51;3.50;;;1.67;;
18899;SDS011;9582;52.018;6.306;2023-02-28T12:15:33;2.40;;;1.70;;
18899;SDS011;9582;52.018;6.306;2023-02-28T12:18:13;1.90;;;1.50;;
18899;SDS011;9582;52.018;6.306;2023-02-28T12:20:49;2.40;;;1.50;;
18899;SDS011;9582;52.018;6.306;2023-02-28T12:23:33;2.00;;;1.50;;
18899;SDS011;9582;52.018;6.306;2023-02-28T12:26:14;1.80;;;1.50;;
18899;SDS011;9582;52.018;6.306;2023-02-28T12:28:47;1.70;;;1.57;;
18899;SDS011;9582;52.018;6.306;2023-02-28T12:31:18;3.10;;;1.50;;
18899;SDS011;9582;52.018;6.306;2023-02-28T12:33:50;1.83;;;1.40;;
18899;SDS011;9582;52.018;6.306;2023-02-28T12:36:19;2.83;;;1.83;;
18899;SDS011;9582;52.018;6.306;2023-02-28T12:38:50;2.20;;;1.40;;
18899;SDS011;9582;52.018;6.306;2023-02-28T12:41:22;1.97;;;1.20;;
18899;SDS011;9582;52.018;6.306;2023-02-28T12:43:57;1.20;;;0.90;;
18899;SDS011;9582;52.018;6.306;2023-02-28T12:46:28;1.40;;;1.30;;
18899;SDS011;9582;52.018;6.306;2023-02-28T12:49:00;1.77;;;1.40;;
18899;SDS011;9582;52.018;6.306;2023-02-28T12:51:32;1.50;;;1.40;;
18899;SDS011;9582;52.018;6.306;2023-02-28T12:54:07;1.07;;;0.90;;
18899;SDS011;9582;52.018;6.306;2023-02-28T12:56:42;1.73;;;1.40;;
18899;SDS011;9582;52.018;6.306;2023-02-28T12:59:15;1.33;;;1.23;;
18899;SDS011;9582;52.018;6.306;2023-02-28T13:01:56;1.70;;;1.20;;
18899;SDS011;9582;52.018;6.306;2023-02-28T13:10:41;1.30;;;1.20;;
18899;SDS011;9582;52.018;6.306;2023-02-28T13:13:13;2.37;;;1.40;;
18899;SDS011;9582;52.018;6.306;2023-02-28T13:15:44;1.83;;;1.47;;
18899;SDS011;9582;52.018;6.306;2023-02-28T13:18:27;1.83;;;1.50;;
18899;SDS011;9582;52.018;6.306;2023-02-28T13:20:56;2.73;;;1.70;;
18899;SDS011;9582;52.018;6.306;2023-02-28T13:23:37;2.90;;;1.50;;
18899;SDS011;9582;52.018;6.306;2023-02-28T13:26:25;1.20;;;1.10;;
18899;SDS011;9582;52.018;6.306;2023-02-28T13:29:32;2.17;;;1.40;;
18899;SDS011;9582;52.018;6.306;2023-02-28T13:35:14;3.07;;;1.50;;
18899;SDS011;9582;52.018;6.306;2023-02-28T13:38:12;2.83;;;1.60;;
18899;SDS011;9582;52.018;6.306;2023-02-28T13:40:43;3.20;;;1.37;;
18899;SDS011;9582;52.018;6.306;2023-02-28T13:43:09;2.37;;;1.40;;
18899;SDS011;9582;52.018;6.306;2023-02-28T13:45:37;1.23;;;1.13;;
18899;SDS011;9582;52.018;6.306;2023-02-28T13:48:05;1.80;;;1.50;;
18899;SDS011;9582;52.018;6.306;2023-02-28T13:50:42;2.57;;;1.50;;
18899;SDS011;9582;52.018;6.306;2023-02-28T13:56:19;2.27;;;1.40;;
18899;SDS011;9582;52.018;6.306;2023-02-28T13:58:57;2.10;;;1.10;;
18899;SDS011;9582;52.018;6.306;2023-02-28T14:01:37;1.50;;;1.37;;
18899;SDS011;9582;52.018;6.306;2023-02-28T14:07:22;1.60;;;1.27;;
18899;SDS011;9582;52.018;6.306;2023-02-28T14:09:59;2.27;;;1.60;;
18899;SDS011;9582;52.018;6.306;2023-02-28T14:15:37;1.57;;;1.40;;
18899;SDS011;9582;52.018;6.306;2023-02-28T14:18:13;2.43;;;1.60;;
18899;SDS011;9582;52.018;6.306;2023-02-28T14:20:43;2.53;;;1.50;;
18899;SDS011;9582;52.018;6.306;2023-02-28T14:23:14;1.43;;;1.33;;
18899;SDS011;9582;52.018;6.306;2023-02-28T14:25:51;2.07;;;1.50;;
18899;SDS011;9582;52.018;6.306;2023-02-28T14:28:25;2.23;;;1.83;;
18899;SDS011;9582;52.018;6.306;2023-02-28T14:31:05;2.60;;;1.73;;
18899;SDS011;9582;52.018;6.306;2023-02-28T14:33:46;2.60;;;1.87;;
18899;SDS011;9582;52.018;6.306;2023-02-28T14:36:25;1.60;;;1.50;;
18899;SDS011;9582;52.018;6.306;2023-02-28T14:38:55;1.80;;;1.47;;
18899;SDS011;9582;52.018;6.306;2023-02-28T14:41:24;1.70;;;1.60;;
18899;SDS011;9582;52.018;6.306;2023-02-28T14:43:55;3.60;;;1.73;;
18899;SDS011;9582;52.018;6.306;2023-02-28T14:46:23;2.23;;;1.50;;
18899;SDS011;9582;52.018;6.306;2023-02-28T14:48:55;2.07;;;1.60;;
18899;SDS011;9582;52.018;6.306;2023-02-28T14:51:22;2.30;;;2.10;;
18899;SDS011;9582;52.018;6.306;2023-02-28T14:53:50;2.93;;;1.70;;
18899;SDS011;9582;52.018;6.306;2023-02-28T14:56:22;2.20;;;1.80;;
18899;SDS011;9582;52.018;6.306;2023-02-28T14:58:51;1.73;;;1.63;;
18899;SDS011;9582;52.018;6.306;2023-02-28T15:01:20;2.37;;;1.97;;
18899;SDS011;9582;52.018;6.306;2023-02-28T15:06:44;2.63;;;1.80;;
18899;SDS011;9582;52.018;6.306;2023-02-28T15:09:13;2.23;;;1.77;;
18899;SDS011;9582;52.018;6.306;2023-02-28T15:11:41;2.13;;;1.90;;
18899;SDS011;9582;52.018;6.306;2023-02-28T15:14:14;3.23;;;1.90;;
18899;SDS011;9582;52.018;6.306;2023-02-28T15:16:44;2.33;;;2.03;;
18899;SDS011;9582;52.018;6.306;2023-02-28T15:19:18;2.10;;;1.80;;
18899;SDS011;9582;52.018;6.306;2023-02-28T15:21:50;1.93;;;1.73;;
18899;SDS011;9582;52.018;6.306;2023-02-28T15:24:21;2.13;;;1.93;;
18899;SDS011;9582;52.018;6.306;2023-02-28T15:26:58;3.07;;;2.20;;
18899;SDS011;9582;52.018;6.306;2023-02-28T15:29:27;3.17;;;1.90;;
18899;SDS011;9582;52.018;6.306;2023-02-28T15:31:56;2.83;;;1.93;;
18899;SDS011;9582;52.018;6.306;2023-02-28T15:34:29;2.27;;;1.90;;
18899;SDS011;9582;52.018;6.306;2023-02-28T15:37:01;2.67;;;2.43;;
18899;SDS011;9582;52.018;6.306;2023-02-28T15:39:28;3.00;;;1.90;;
18899;SDS011;9582;52.018;6.306;2023-02-28T15:42:09;3.50;;;2.17;;
18899;SDS011;9582;52.018;6.306;2023-02-28T15:44:37;2.47;;;2.27;;
18899;SDS011;9582;52.018;6.306;2023-02-28T15:47:04;3.40;;;2.20;;